createdAt,value
2022-10-29T00:02:06.091Z,101021.84
2022-10-29T00:04:32.781Z,101011.94
2022-10-29T00:06:59.324Z,101004.09
2022-10-29T00:09:25.917Z,100994.78
2022-10-29T00:11:52.472Z,101000.22
2022-10-29T00:14:18.997Z,101013.91
2022-10-29T00:16:45.600Z,101019.78
2022-10-29T00:19:12.119Z,101030.28
2022-10-29T00:21:40.433Z,101023.56
2022-10-29T00:24:09.973Z,101013.91
2022-10-29T00:26:36.529Z,101010.81
2022-10-29T00:29:03.269Z,101021.22
2022-10-29T00:31:31.044Z,101025.78
2022-10-29T00:33:57.639Z,101023.31
2022-10-29T00:36:27.332Z,101027.44
2022-10-29T00:38:54.195Z,101022.00
2022-10-29T00:41:26.420Z,101012.44
2022-10-29T00:44:18.714Z,101015.97
2022-10-29T00:47:11.016Z,101023.31
2022-10-29T00:49:41.380Z,101019.78
2022-10-29T00:52:09.248Z,101017.28
2022-10-29T00:54:39.623Z,101000.81
2022-10-29T00:57:16.927Z,101022.34
2022-10-29T00:59:45.767Z,100999.09
2022-10-29T01:02:12.526Z,100991.44
2022-10-29T01:04:40.368Z,101035.00
2022-10-29T01:07:07.262Z,101032.06
2022-10-29T01:09:33.890Z,101040.69
2022-10-29T01:12:47.249Z,101035.94
2022-10-29T01:15:20.333Z,101035.47
2022-10-29T01:18:11.563Z,101027.88
2022-10-29T01:21:12.254Z,101024.16
2022-10-29T01:23:48.178Z,101018.38
2022-10-29T01:27:08.481Z,100993.84
2022-10-29T01:29:53.762Z,101011.72
2022-10-29T01:32:37.316Z,101009.50
2022-10-29T01:35:14.030Z,101006.38
2022-10-29T01:38:14.692Z,101008.41
2022-10-29T01:40:47.213Z,101010.56
2022-10-29T01:43:38.512Z,101022.44
2022-10-29T01:46:12.761Z,101019.31
2022-10-29T01:48:44.199Z,101007.41
2022-10-29T01:51:22.131Z,101011.00
2022-10-29T01:53:49.913Z,101013.00
2022-10-29T01:56:16.455Z,101009.63
2022-10-29T01:58:47.482Z,101014.16
2022-10-29T02:01:43.246Z,101010.63
2022-10-29T02:04:34.306Z,101009.78
2022-10-29T02:07:22.671Z,101024.97
2022-10-29T02:10:14.704Z,101019.78
2022-10-29T02:12:51.195Z,101015.31
2022-10-29T02:15:29.553Z,101024.38
2022-10-29T02:18:07.697Z,100996.78
2022-10-29T02:20:35.157Z,101004.53
2022-10-29T02:23:01.637Z,101009.56
2022-10-29T02:25:28.414Z,100997.56
2022-10-29T02:27:55.242Z,101007.44
2022-10-29T02:30:21.933Z,100978.22
2022-10-29T02:32:48.422Z,100979.81
2022-10-29T02:35:15.026Z,100992.31
2022-10-29T02:37:41.616Z,101011.41
2022-10-29T02:40:09.153Z,101012.34
2022-10-29T02:42:35.791Z,101010.69
2022-10-29T02:45:02.417Z,101002.09
2022-10-29T02:47:28.944Z,100999.38
2022-10-29T02:49:55.525Z,100996.38
2022-10-29T02:52:22.045Z,101013.03
2022-10-29T02:54:48.574Z,101015.13
2022-10-29T02:57:15.073Z,101011.72
2022-10-29T02:59:41.568Z,100990.06
2022-10-29T03:02:08.457Z,100988.41
2022-10-29T03:04:35.147Z,101015.53
2022-10-29T03:07:03.026Z,100991.47
2022-10-29T03:09:29.529Z,101000.72
2022-10-29T03:11:56.044Z,100999.16
2022-10-29T03:14:22.621Z,100980.91
2022-10-29T03:16:49.125Z,100996.31
2022-10-29T03:19:15.609Z,100992.19
2022-10-29T03:21:42.425Z,100992.25
2022-10-29T03:24:08.935Z,100997.66
2022-10-29T03:26:35.478Z,100989.56
2022-10-29T03:29:02.216Z,101008.75
2022-10-29T03:31:28.698Z,100990.75
2022-10-29T03:33:55.245Z,100995.84
2022-10-29T03:36:21.803Z,100992.25
2022-10-29T03:38:48.511Z,101000.22
2022-10-29T03:41:15.482Z,101002.31
2022-10-29T03:43:43.589Z,100999.88
2022-10-29T03:46:10.237Z,101001.97
2022-10-29T03:48:37.079Z,101005.34
2022-10-29T03:51:08.698Z,100996.00
2022-10-29T03:53:36.987Z,100994.63
2022-10-29T03:56:04.033Z,100995.50
2022-10-29T03:58:30.628Z,101016.13
2022-10-29T04:01:02.836Z,101010.94
2022-10-29T04:03:31.366Z,101009.38
2022-10-29T04:05:59.317Z,101007.00
2022-10-29T04:08:26.245Z,101018.44
2022-10-29T04:10:53.636Z,101018.44
2022-10-29T04:13:20.432Z,101011.25
2022-10-29T04:15:47.277Z,101014.53
2022-10-29T04:18:14.022Z,100998.66
2022-10-29T04:21:31.309Z,101007.59
2022-10-29T04:29:02.285Z,101020.72
2022-10-29T04:31:28.789Z,101007.34
2022-10-29T04:33:55.513Z,101000.03
2022-10-29T04:36:22.109Z,100997.16
2022-10-29T04:38:50.242Z,100965.47
2022-10-29T04:41:16.900Z,100978.84
2022-10-29T04:43:43.505Z,100980.44
2022-10-29T04:46:12.961Z,100975.59
2022-10-29T04:48:39.560Z,100966.66
2022-10-29T04:51:06.087Z,100975.38
2022-10-29T04:53:32.678Z,100984.81
2022-10-29T04:56:01.460Z,100990.88
2022-10-29T04:58:28.394Z,100977.72
2022-10-29T05:01:01.193Z,100980.88
2022-10-29T05:03:27.864Z,100982.66
2022-10-29T05:05:54.374Z,100989.50
2022-10-29T05:08:21.555Z,100990.50
2022-10-29T05:10:48.059Z,101002.00
2022-10-29T05:13:14.547Z,100999.41
2022-10-29T05:15:41.274Z,100976.84
2022-10-29T05:18:08.071Z,101004.75
2022-10-29T05:20:34.613Z,100984.47
2022-10-29T05:23:05.666Z,100981.66
2022-10-29T05:25:34.063Z,100983.03
2022-10-29T05:28:12.717Z,100979.97
2022-10-29T05:30:39.780Z,100969.41
2022-10-29T05:33:10.192Z,100994.13
2022-10-29T05:35:36.819Z,100990.03
2022-10-29T05:38:04.315Z,100988.38
2022-10-29T05:40:30.885Z,100976.16
2022-10-29T05:42:58.402Z,100984.00
2022-10-29T05:45:25.265Z,100965.06
2022-10-29T05:48:02.373Z,100985.66
2022-10-29T05:50:29.741Z,100990.91
2022-10-29T05:52:58.344Z,100984.66
2022-10-29T05:55:25.781Z,100969.91
2022-10-29T05:57:59.249Z,100980.03
2022-10-29T06:00:31.417Z,100977.31
2022-10-29T06:02:58.278Z,100982.44
2022-10-29T06:05:25.958Z,100980.56
2022-10-29T06:07:57.253Z,100984.97
2022-10-29T06:10:25.583Z,100983.31
2022-10-29T06:12:52.204Z,100986.03
2022-10-29T06:15:19.502Z,100988.56
2022-10-29T06:17:46.809Z,100966.03
2022-10-29T06:20:16.849Z,100983.47
2022-10-29T06:22:43.531Z,100984.25
2022-10-29T06:25:10.387Z,100995.84
2022-10-29T06:27:37.441Z,100992.41
2022-10-29T06:30:05.827Z,100994.06
2022-10-29T06:32:32.485Z,100969.72
2022-10-29T06:34:59.155Z,100991.75
2022-10-29T06:37:25.744Z,100981.06
2022-10-29T06:39:52.271Z,100973.72
2022-10-29T06:42:18.806Z,100993.00
2022-10-29T06:44:46.504Z,101007.78
2022-10-29T06:47:13.011Z,100996.22
2022-10-29T06:49:40.722Z,101006.09
2022-10-29T06:52:07.258Z,100999.91
2022-10-29T06:54:33.738Z,101004.38
2022-10-29T06:57:00.290Z,101009.59
2022-10-29T06:59:26.840Z,101012.34
2022-10-29T07:01:53.526Z,101015.94
2022-10-29T07:04:21.176Z,101014.28
2022-10-29T07:06:47.724Z,100985.94
2022-10-29T07:09:14.355Z,101019.84
2022-10-29T07:11:40.974Z,101011.16
2022-10-29T07:14:09.766Z,101018.84
2022-10-29T07:16:36.854Z,100996.06
2022-10-29T07:19:04.603Z,101000.97
2022-10-29T07:21:31.352Z,101009.28
2022-10-29T07:23:57.878Z,100982.50
2022-10-29T07:26:24.431Z,100999.00
2022-10-29T07:28:51.006Z,101004.75
2022-10-29T07:31:17.533Z,100997.03
2022-10-29T07:33:44.091Z,100991.94
2022-10-29T07:36:10.699Z,101008.25
2022-10-29T07:38:37.277Z,101014.31
2022-10-29T07:41:03.820Z,101017.56
2022-10-29T07:43:30.328Z,100998.16
2022-10-29T07:45:57.253Z,101018.31
2022-10-29T07:48:23.962Z,101014.25
2022-10-29T07:50:50.636Z,101018.84
2022-10-29T07:53:17.383Z,101001.06
2022-10-29T07:55:43.997Z,101011.56
2022-10-29T07:58:12.264Z,101011.06
2022-10-29T08:00:41.186Z,101016.75
2022-10-29T08:03:08.694Z,101030.13
2022-10-29T08:05:35.460Z,101020.75
2022-10-29T08:08:02.242Z,101008.91
2022-10-29T08:10:30.563Z,101020.63
2022-10-29T08:12:59.939Z,101004.63
2022-10-29T08:15:35.110Z,101019.00
2022-10-29T08:18:02.387Z,101022.19
2022-10-29T08:20:29.555Z,101022.19
2022-10-29T08:23:00.442Z,101031.72
2022-10-29T08:25:27.379Z,101024.69
2022-10-29T08:28:01.454Z,101025.44
2022-10-29T08:30:28.148Z,101010.38
2022-10-29T08:32:55.404Z,101014.09
2022-10-29T08:35:22.283Z,101028.13
2022-10-29T08:37:49.016Z,101001.44
2022-10-29T08:40:33.744Z,101001.34
2022-10-29T08:43:39.370Z,101022.38
2022-10-29T08:46:24.648Z,101016.88
2022-10-29T08:49:01.187Z,101016.88
2022-10-29T08:51:44.445Z,101020.22
2022-10-29T08:54:32.107Z,101024.78
2022-10-29T08:57:06.304Z,101015.91
2022-10-29T08:59:40.034Z,101015.38
2022-10-29T09:02:15.420Z,100998.75
2022-10-29T09:04:42.002Z,101004.47
2022-10-29T09:07:33.377Z,101015.53
2022-10-29T09:10:02.524Z,101017.44
2022-10-29T09:12:47.776Z,100998.22
2022-10-29T09:15:57.252Z,101018.66
2022-10-29T09:18:42.872Z,101027.06
2022-10-29T09:21:44.189Z,101027.41
2022-10-29T09:24:14.321Z,100998.44
2022-10-29T09:26:43.720Z,101025.53
2022-10-29T09:29:36.402Z,100992.28
2022-10-29T09:32:08.621Z,101016.31
2022-10-29T09:34:43.061Z,101018.16
2022-10-29T09:37:27.756Z,100997.06
2022-10-29T09:39:57.093Z,100998.47
2022-10-29T09:42:35.934Z,101016.16
2022-10-29T09:45:09.372Z,101007.94
2022-10-29T09:48:06.088Z,101014.34
2022-10-29T09:50:40.628Z,101002.22
2022-10-29T09:53:08.876Z,100997.81
2022-10-29T09:55:41.739Z,100981.03
2022-10-29T09:58:28.753Z,101009.06
2022-10-29T10:00:59.531Z,101007.50
2022-10-29T10:03:45.628Z,101006.34
2022-10-29T10:06:14.791Z,100996.69
2022-10-29T10:09:01.630Z,101003.53
2022-10-29T10:11:40.815Z,100993.78
2022-10-29T10:14:21.757Z,100997.03
2022-10-29T10:16:58.359Z,100994.00
2022-10-29T10:19:31.046Z,100966.25
2022-10-29T10:22:03.475Z,100954.78
2022-10-29T10:24:33.204Z,100985.34
2022-10-29T10:27:00.783Z,100978.84
2022-10-29T10:29:28.365Z,100988.09
2022-10-29T10:31:57.585Z,100999.38
2022-10-29T10:34:26.443Z,100983.19
2022-10-29T10:36:57.044Z,100967.75
2022-10-29T10:39:30.216Z,100988.47
2022-10-29T10:42:02.563Z,100973.06
2022-10-29T10:44:29.689Z,100973.06
2022-10-29T10:47:04.176Z,100965.31
2022-10-29T10:49:37.912Z,100948.06
2022-10-29T10:52:14.122Z,100952.81
2022-10-29T10:54:45.524Z,100961.19
2022-10-29T10:57:12.039Z,100962.31
2022-10-29T10:59:41.809Z,100940.50
2022-10-29T11:02:35.302Z,100951.34
2022-10-29T11:05:24.784Z,100950.69
2022-10-29T11:07:59.590Z,100931.59
2022-10-29T11:10:34.377Z,100950.06
2022-10-29T11:13:06.488Z,100949.38
2022-10-29T11:15:44.422Z,100935.31
2022-10-29T11:18:22.149Z,100936.94
2022-10-29T11:21:02.183Z,100915.50
2022-10-29T11:23:44.138Z,100908.22
2022-10-29T11:26:19.940Z,100906.34
2022-10-29T11:28:54.031Z,100917.34
2022-10-29T11:31:29.279Z,100906.06
2022-10-29T11:34:23.700Z,100903.38
2022-10-29T11:37:13.123Z,100909.50
2022-10-29T11:40:10.252Z,100911.00
2022-10-29T11:42:36.958Z,100911.53
2022-10-29T11:45:03.610Z,100905.03
2022-10-29T11:48:05.269Z,100909.31
2022-10-29T11:51:00.059Z,100903.09
2022-10-29T11:53:32.605Z,100897.81
2022-10-29T11:56:23.589Z,100898.88
2022-10-29T11:59:08.592Z,100894.69
2022-10-29T12:01:53.389Z,100891.03
2022-10-29T12:04:41.925Z,100891.84
2022-10-29T12:07:22.108Z,100881.97
2022-10-29T12:10:00.464Z,100885.63
2022-10-29T12:12:44.656Z,100878.97
2022-10-29T12:15:35.504Z,100878.59
2022-10-29T12:18:25.152Z,100875.59
2022-10-29T12:21:13.788Z,100878.97
2022-10-29T12:24:10.682Z,100875.00
2022-10-29T12:27:09.098Z,100876.63
2022-10-29T12:30:02.605Z,100872.31
2022-10-29T12:32:48.789Z,100859.94
2022-10-29T12:35:33.932Z,100874.25
2022-10-29T12:38:06.372Z,100844.56
2022-10-29T12:40:40.525Z,100841.78
2022-10-29T12:43:12.796Z,100842.13
2022-10-29T12:45:48.079Z,100853.38
2022-10-29T12:48:44.131Z,100848.22
2022-10-29T12:51:19.640Z,100852.53
2022-10-29T12:54:09.914Z,100847.66
2022-10-29T12:56:39.787Z,100851.06
2022-10-29T12:59:24.636Z,100847.09
2022-10-29T13:02:11.865Z,100845.91
2022-10-29T13:04:38.430Z,100839.56
2022-10-29T13:09:48.569Z,100822.44
2022-10-29T13:12:54.004Z,100837.69
2022-10-29T13:15:30.470Z,100830.56
2022-10-29T13:18:02.363Z,100832.38
2022-10-29T13:20:46.586Z,100828.94
2022-10-29T13:23:22.242Z,100829.34
2022-10-29T13:25:53.244Z,100829.09
2022-10-29T13:28:19.737Z,100826.56
2022-10-29T13:31:10.305Z,100826.13
2022-10-29T13:33:36.786Z,100821.28
2022-10-29T13:36:15.538Z,100792.19
2022-10-29T13:39:04.451Z,100791.75
2022-10-29T13:41:43.287Z,100787.81
2022-10-29T13:44:22.907Z,100790.06
2022-10-29T13:46:54.621Z,100808.97
2022-10-29T13:49:31.926Z,100809.72
2022-10-29T13:52:25.562Z,100816.22
2022-10-29T13:55:01.599Z,100811.22
2022-10-29T13:57:42.731Z,100803.28
2022-10-29T14:00:12.740Z,100805.84
2022-10-29T14:02:54.792Z,100797.66
2022-10-29T14:05:30.084Z,100792.28
2022-10-29T14:08:18.527Z,100792.81
2022-10-29T14:10:50.526Z,100791.31
2022-10-29T14:13:23.608Z,100788.75
2022-10-29T14:16:06.335Z,100787.53
2022-10-29T14:18:36.725Z,100788.53
2022-10-29T14:21:04.362Z,100788.41
2022-10-29T14:23:32.532Z,100791.88
2022-10-29T14:26:03.813Z,100772.53
2022-10-29T14:28:33.933Z,100778.44
2022-10-29T14:31:10.935Z,100781.13
2022-10-29T14:33:42.374Z,100779.50
2022-10-29T14:36:15.339Z,100778.53
2022-10-29T14:38:46.139Z,100787.44
2022-10-29T14:41:14.864Z,100772.53
2022-10-29T14:43:42.299Z,100790.13
2022-10-29T14:46:12.873Z,100789.25
2022-10-29T14:48:46.752Z,100791.44
2022-10-29T14:51:20.019Z,100792.53
2022-10-29T14:53:54.464Z,100793.72
2022-10-29T14:56:26.873Z,100781.88
2022-10-29T14:58:53.631Z,100777.94
2022-10-29T15:01:20.741Z,100798.44
2022-10-29T15:03:47.971Z,100788.94
2022-10-29T15:06:19.856Z,100786.25
2022-10-29T15:08:56.367Z,100774.38
2022-10-29T15:11:40.731Z,100778.03
2022-10-29T15:14:25.445Z,100787.44
2022-10-29T15:16:52.032Z,100788.75
2022-10-29T15:19:19.203Z,100784.69
2022-10-29T15:21:46.028Z,100778.06
2022-10-29T15:24:20.658Z,100777.56
2022-10-29T15:26:54.285Z,100775.31
2022-10-29T15:29:29.112Z,100754.91
2022-10-29T15:31:59.055Z,100782.13
2022-10-29T15:34:34.116Z,100779.03
2022-10-29T15:37:21.499Z,100782.06
2022-10-29T15:40:01.202Z,100780.13
2022-10-29T15:42:30.275Z,100784.03
2022-10-29T15:47:42.056Z,100781.16
2022-10-29T15:50:17.910Z,100759.22
2022-10-29T15:53:05.599Z,100778.72
2022-10-29T15:55:34.292Z,100751.53
2022-10-29T15:58:04.885Z,100770.94
2022-10-29T16:00:33.196Z,100760.03
2022-10-29T16:03:23.383Z,100746.88
2022-10-29T16:05:53.627Z,100765.06
2022-10-29T16:08:29.856Z,100762.41
2022-10-29T16:10:57.630Z,100769.69
2022-10-29T16:13:25.905Z,100779.00
2022-10-29T16:15:52.512Z,100770.75
2022-10-29T16:18:19.033Z,100764.22
2022-10-29T16:20:46.232Z,100750.94
2022-10-29T16:23:13.226Z,100765.59
2022-10-29T16:25:39.955Z,100761.63
2022-10-29T16:28:07.270Z,100764.19
2022-10-29T16:30:34.488Z,100758.91
2022-10-29T16:33:01.623Z,100778.59
2022-10-29T16:35:30.121Z,100748.06
2022-10-29T16:37:57.607Z,100746.84
2022-10-29T16:40:26.882Z,100776.53
2022-10-29T16:42:56.726Z,100769.00
2022-10-29T16:45:27.316Z,100776.69
2022-10-29T16:47:54.718Z,100775.13
2022-10-29T16:50:26.390Z,100770.19
2022-10-29T16:53:10.102Z,100774.13
2022-10-29T16:55:38.992Z,100762.88
2022-10-29T16:58:13.190Z,100754.22
2022-10-29T17:00:39.877Z,100755.75
2022-10-29T17:03:11.508Z,100751.66
2022-10-29T17:05:41.377Z,100723.19
2022-10-29T17:08:08.239Z,100761.44
2022-10-29T17:10:35.821Z,100758.19
2022-10-29T17:13:02.622Z,100766.50
2022-10-29T17:15:29.373Z,100743.63
2022-10-29T17:17:56.444Z,100763.63
2022-10-29T17:20:23.319Z,100759.66
2022-10-29T17:22:49.907Z,100749.34
2022-10-29T17:25:16.466Z,100766.22
2022-10-29T17:27:43.012Z,100761.28
2022-10-29T17:30:10.692Z,100771.13
2022-10-29T17:32:37.405Z,100759.84
2022-10-29T17:35:04.331Z,100765.09
2022-10-29T17:37:30.924Z,100763.47
2022-10-29T17:40:01.490Z,100761.06
2022-10-29T17:42:31.578Z,100751.22
2022-10-29T17:44:58.135Z,100765.00
2022-10-29T17:47:24.750Z,100766.97
2022-10-29T17:49:51.399Z,100771.63
2022-10-29T17:52:18.038Z,100780.75
2022-10-29T17:54:44.688Z,100767.03
2022-10-29T17:57:11.240Z,100754.44
2022-10-29T17:59:37.760Z,100754.72
2022-10-29T18:02:04.469Z,100774.84
2022-10-29T18:04:31.047Z,100761.94
2022-10-29T18:06:57.627Z,100772.53
2022-10-29T18:09:24.233Z,100743.53
2022-10-29T18:11:50.931Z,100776.31
2022-10-29T18:14:17.555Z,100774.81
2022-10-29T18:16:44.145Z,100777.75
2022-10-29T18:19:10.820Z,100774.41
2022-10-29T18:21:37.357Z,100778.88
2022-10-29T18:24:04.154Z,100771.13
2022-10-29T18:26:36.003Z,100788.00
2022-10-29T18:29:07.568Z,100776.84
2022-10-29T18:31:34.576Z,100781.31
2022-10-29T18:34:05.280Z,100780.63
2022-10-29T18:36:32.621Z,100772.03
2022-10-29T18:38:59.438Z,100759.66
2022-10-29T18:41:26.073Z,100763.47
2022-10-29T18:43:52.927Z,100773.94
2022-10-29T18:46:20.123Z,100777.56
2022-10-29T18:48:48.462Z,100753.00
2022-10-29T18:51:35.236Z,100776.97
2022-10-29T18:54:01.882Z,100764.28
2022-10-29T18:56:29.660Z,100752.88
2022-10-29T18:58:57.282Z,100786.44
2022-10-29T19:01:27.133Z,100750.19
2022-10-29T19:03:56.874Z,100775.03
2022-10-29T19:06:25.076Z,100761.34
2022-10-29T19:08:52.066Z,100763.06
2022-10-29T19:11:21.035Z,100770.22
2022-10-29T19:13:53.951Z,100773.81
2022-10-29T19:16:21.348Z,100756.94
2022-10-29T19:18:48.609Z,100771.44
2022-10-29T19:21:17.501Z,100769.03
2022-10-29T19:23:46.194Z,100758.84
2022-10-29T19:26:15.564Z,100763.50
2022-10-29T19:28:44.943Z,100753.97
2022-10-29T19:31:17.638Z,100764.38
2022-10-29T19:33:49.566Z,100769.84
2022-10-29T19:36:17.000Z,100766.41
2022-10-29T19:38:44.078Z,100765.72
2022-10-29T19:41:12.342Z,100768.47
2022-10-29T19:43:39.899Z,100760.75
2022-10-29T19:46:09.240Z,100757.41
2022-10-29T19:48:36.450Z,100768.13
2022-10-29T19:51:03.385Z,100770.72
2022-10-29T19:53:30.233Z,100761.16
2022-10-29T19:55:57.243Z,100754.91
2022-10-29T19:58:26.347Z,100763.66
2022-10-29T20:00:54.107Z,100764.78
2022-10-29T20:03:21.536Z,100745.97
2022-10-29T20:05:49.571Z,100746.28
2022-10-29T20:08:16.501Z,100746.28
2022-10-29T20:10:43.607Z,100755.84
2022-10-29T20:13:10.199Z,100747.44
2022-10-29T20:15:40.119Z,100771.72
2022-10-29T20:18:06.806Z,100768.28
2022-10-29T20:20:33.350Z,100753.94
2022-10-29T20:23:00.575Z,100745.69
2022-10-29T20:25:27.659Z,100766.22
2022-10-29T20:27:54.358Z,100765.44
2022-10-29T20:30:21.722Z,100767.25
2022-10-29T20:32:49.180Z,100768.03
2022-10-29T20:35:16.772Z,100751.66
2022-10-29T20:37:43.382Z,100777.03
2022-10-29T20:40:10.664Z,100767.56
2022-10-29T20:42:37.274Z,100766.97
2022-10-29T20:45:04.704Z,100768.00
2022-10-29T20:47:31.247Z,100756.72
2022-10-29T20:49:57.898Z,100756.72
2022-10-29T20:52:24.459Z,100761.19
2022-10-29T20:54:51.105Z,100775.19
2022-10-29T20:57:17.663Z,100765.56
2022-10-29T20:59:45.329Z,100759.69
2022-10-29T21:02:12.305Z,100771.13
2022-10-29T21:04:39.226Z,100775.59
2022-10-29T21:07:07.628Z,100779.03
2022-10-29T21:09:34.274Z,100764.94
2022-10-29T21:12:00.946Z,100757.53
2022-10-29T21:14:29.166Z,100750.50
2022-10-29T21:16:55.895Z,100759.81
2022-10-29T21:19:22.988Z,100766.75
2022-10-29T21:21:49.605Z,100763.34
2022-10-29T21:24:17.711Z,100746.28
2022-10-29T21:26:44.305Z,100771.41
2022-10-29T21:29:10.825Z,100766.16
2022-10-29T21:31:37.425Z,100753.41
2022-10-29T21:34:03.958Z,100776.88
2022-10-29T21:36:30.561Z,100770.69
2022-10-29T21:38:57.279Z,100767.41
2022-10-29T21:41:23.959Z,100757.00
2022-10-29T21:43:50.562Z,100749.28
2022-10-29T21:46:17.495Z,100757.63
2022-10-29T21:48:44.131Z,100761.22
2022-10-29T21:51:12.617Z,100749.88
2022-10-29T21:53:39.412Z,100742.25
2022-10-29T21:56:08.236Z,100756.91
2022-10-29T21:58:34.920Z,100750.13
2022-10-29T22:01:12.953Z,100755.47
2022-10-29T22:03:41.573Z,100745.91
2022-10-29T22:06:11.990Z,100748.72
2022-10-29T22:08:38.844Z,100752.25
2022-10-29T22:11:05.990Z,100731.66
2022-10-29T22:13:34.034Z,100750.53
2022-10-29T22:16:01.919Z,100754.91
2022-10-29T22:18:29.134Z,100757.56
2022-10-29T22:21:20.013Z,100758.44
2022-10-29T22:23:52.175Z,100748.56
2022-10-29T22:26:21.325Z,100746.78
2022-10-29T22:28:47.954Z,100740.66
2022-10-29T22:31:15.537Z,100752.00
2022-10-29T22:33:45.712Z,100743.09
2022-10-29T22:36:15.462Z,100730.19
2022-10-29T22:38:42.350Z,100745.53
2022-10-29T22:41:11.208Z,100746.34
2022-10-29T22:43:38.447Z,100697.09
2022-10-29T22:46:06.907Z,100735.97
2022-10-29T22:48:34.069Z,100728.78
2022-10-29T22:51:04.664Z,100736.50
2022-10-29T22:53:31.680Z,100740.00
2022-10-29T22:55:58.755Z,100743.47
2022-10-29T22:58:25.331Z,100732.75
2022-10-29T23:01:16.593Z,100735.31
2022-10-29T23:03:43.609Z,100718.66
2022-10-29T23:06:15.917Z,100738.75
2022-10-29T23:08:44.210Z,100735.47
2022-10-29T23:11:19.906Z,100742.53
2022-10-29T23:14:00.395Z,100744.41
2022-10-29T23:16:28.672Z,100748.78
2022-10-29T23:18:57.515Z,100743.69
2022-10-29T23:21:24.341Z,100750.84
2022-10-29T23:23:51.603Z,100754.53
2022-10-29T23:26:19.715Z,100747.94
2022-10-29T23:28:47.302Z,100732.47
2022-10-29T23:31:16.511Z,100757.50
2022-10-29T23:33:48.453Z,100749.66
2022-10-29T23:36:16.344Z,100749.66
2022-10-29T23:38:43.107Z,100750.38
2022-10-29T23:41:10.060Z,100735.16
2022-10-29T23:43:36.601Z,100750.69
2022-10-29T23:46:03.736Z,100749.81
2022-10-29T23:48:30.408Z,100740.22
2022-10-29T23:50:56.976Z,100740.97
2022-10-29T23:53:24.571Z,100736.44
2022-10-29T23:55:51.277Z,100745.91
2022-10-29T23:58:17.994Z,100734.41
